Weather at Pakuba Airfield

Public forecast

Using degrees Celsius for public forecast. Weather courtesy of forecast.io.

Closest aviation weather report (METAR) to Pakuba Airfield

Report is more than 6 hours old.

Closest report is Masindi Airport, 37.0 nm (68.5 km) SSE. Retrieved 2020/09/21 12:00 UTC (1 month ago):

HUMI 211200Z 16006KT9999 FEW023 FEW025CB 27/18

Closest aviation forecast (TAF) to Pakuba Airfield

Forecast is more than 12 hours old.

Closest forecast is Soroti Airport, 132.5 nm (245.3 km) ESE. Retrieved 2020/10/28 06:27 UTC (3 days ago):

TAF HUSO 270500Z 2706/2806 35004KT 9999 SCT018 BKN100 BECMG 2709/2712 16005KT -RA BKN020 FEW022CB BECMG 2715/2719 36003KT SCT019 FEW021CB FM 272200 FEW018 SCT100